sensor_id;sensor_type;location;lat;lon;timestamp;pressure;altitude;pressure_sealevel;temperature
45701;BMP280;36277;32.852;-116.998;2022-12-11T00:02:07;100354.19;;;28.04
45701;BMP280;36277;32.852;-116.998;2022-12-11T00:04:34;100349.94;;;27.76
45701;BMP280;36277;32.852;-116.998;2022-12-11T00:07:00;100348.41;;;27.54
45701;BMP280;36277;32.852;-116.998;2022-12-11T00:09:27;100343.47;;;27.37
45701;BMP280;36277;32.852;-116.998;2022-12-11T00:11:53;100353.66;;;27.23
45701;BMP280;36277;32.852;-116.998;2022-12-11T00:14:19;100347.03;;;27.11
45701;BMP280;36277;32.852;-116.998;2022-12-11T00:16:47;100337.81;;;27.04
45701;BMP280;36277;32.852;-116.998;2022-12-11T00:19:14;100331.78;;;26.94
45701;BMP280;36277;32.852;-116.998;2022-12-11T00:21:41;100343.91;;;26.87
45701;BMP280;36277;32.852;-116.998;2022-12-11T00:24:07;100337.47;;;26.80
45701;BMP280;36277;32.852;-116.998;2022-12-11T00:26:33;100330.00;;;26.74
45701;BMP280;36277;32.852;-116.998;2022-12-11T00:28:59;100328.06;;;26.68
45701;BMP280;36277;32.852;-116.998;2022-12-11T00:31:26;100321.22;;;26.64
45701;BMP280;36277;32.852;-116.998;2022-12-11T00:33:52;100318.22;;;26.59
45701;BMP280;36277;32.852;-116.998;2022-12-11T00:36:23;100318.84;;;26.54
45701;BMP280;36277;32.852;-116.998;2022-12-11T00:38:50;100316.69;;;26.50
45701;BMP280;36277;32.852;-116.998;2022-12-11T00:41:18;100317.09;;;26.47
45701;BMP280;36277;32.852;-116.998;2022-12-11T00:43:44;100316.81;;;26.42
45701;BMP280;36277;32.852;-116.998;2022-12-11T00:46:11;100312.53;;;26.39
45701;BMP280;36277;32.852;-116.998;2022-12-11T00:48:37;100311.03;;;26.37
45701;BMP280;36277;32.852;-116.998;2022-12-11T00:51:05;100314.22;;;26.34
45701;BMP280;36277;32.852;-116.998;2022-12-11T00:53:31;100313.97;;;26.29
45701;BMP280;36277;32.852;-116.998;2022-12-11T00:55:57;100318.19;;;26.25
45701;BMP280;36277;32.852;-116.998;2022-12-11T00:58:24;100314.31;;;26.20
45701;BMP280;36277;32.852;-116.998;2022-12-11T01:00:50;100311.13;;;26.16
45701;BMP280;36277;32.852;-116.998;2022-12-11T01:03:16;100309.81;;;26.12
45701;BMP280;36277;32.852;-116.998;2022-12-11T01:05:54;100314.03;;;26.08
45701;BMP280;36277;32.852;-116.998;2022-12-11T01:08:21;100308.25;;;26.03
45701;BMP280;36277;32.852;-116.998;2022-12-11T01:10:47;100304.22;;;25.99
45701;BMP280;36277;32.852;-116.998;2022-12-11T01:13:14;100309.09;;;25.97
45701;BMP280;36277;32.852;-116.998;2022-12-11T01:15:43;100305.00;;;25.93
45701;BMP280;36277;32.852;-116.998;2022-12-11T01:18:11;100298.16;;;25.89
45701;BMP280;36277;32.852;-116.998;2022-12-11T01:20:38;100303.03;;;25.87
45701;BMP280;36277;32.852;-116.998;2022-12-11T01:23:05;100306.59;;;25.81
45701;BMP280;36277;32.852;-116.998;2022-12-11T01:25:32;100304.19;;;25.78
45701;BMP280;36277;32.852;-116.998;2022-12-11T01:28:00;100302.06;;;25.74
45701;BMP280;36277;32.852;-116.998;2022-12-11T01:30:26;100300.72;;;25.70
45701;BMP280;36277;32.852;-116.998;2022-12-11T01:32:52;100301.53;;;25.64
45701;BMP280;36277;32.852;-116.998;2022-12-11T01:35:19;100298.31;;;25.60
45701;BMP280;36277;32.852;-116.998;2022-12-11T01:37:45;100304.44;;;25.56
45701;BMP280;36277;32.852;-116.998;2022-12-11T01:40:15;100304.84;;;25.53
45701;BMP280;36277;32.852;-116.998;2022-12-11T01:42:42;100308.22;;;25.48
45701;BMP280;36277;32.852;-116.998;2022-12-11T01:45:39;100302.22;;;25.45
45701;BMP280;36277;32.852;-116.998;2022-12-11T01:48:27;100296.63;;;25.38
45701;BMP280;36277;32.852;-116.998;2022-12-11T01:50:57;100294.91;;;25.37
45701;BMP280;36277;32.852;-116.998;2022-12-11T01:53:33;100288.53;;;25.37
45701;BMP280;36277;32.852;-116.998;2022-12-11T01:56:02;100287.63;;;25.30
45701;BMP280;36277;32.852;-116.998;2022-12-11T01:58:32;100288.84;;;25.27
45701;BMP280;36277;32.852;-116.998;2022-12-11T02:01:00;100283.72;;;25.25
45701;BMP280;36277;32.852;-116.998;2022-12-11T02:03:26;100277.75;;;25.21
45701;BMP280;36277;32.852;-116.998;2022-12-11T02:05:53;100276.44;;;25.17
45701;BMP280;36277;32.852;-116.998;2022-12-11T02:08:19;100279.41;;;25.16
45701;BMP280;36277;32.852;-116.998;2022-12-11T02:11:03;100287.03;;;25.14
45701;BMP280;36277;32.852;-116.998;2022-12-11T02:16:31;100283.03;;;25.02
45701;BMP280;36277;32.852;-116.998;2022-12-11T02:22:02;100287.53;;;24.88
45701;BMP280;36277;32.852;-116.998;2022-12-11T02:25:09;100296.22;;;24.85
45701;BMP280;36277;32.852;-116.998;2022-12-11T02:27:53;100297.41;;;24.76
45701;BMP280;36277;32.852;-116.998;2022-12-11T02:30:24;100299.69;;;24.73
45701;BMP280;36277;32.852;-116.998;2022-12-11T02:32:56;100302.25;;;24.74
45701;BMP280;36277;32.852;-116.998;2022-12-11T02:35:41;100300.09;;;24.70
45701;BMP280;36277;32.852;-116.998;2022-12-11T02:38:13;100303.63;;;24.64
45701;BMP280;36277;32.852;-116.998;2022-12-11T02:40:41;100302.94;;;24.62
45701;BMP280;36277;32.852;-116.998;2022-12-11T02:43:12;100312.28;;;24.61
45701;BMP280;36277;32.852;-116.998;2022-12-11T02:45:41;100311.81;;;24.57
45701;BMP280;36277;32.852;-116.998;2022-12-11T02:48:09;100314.09;;;24.54
45701;BMP280;36277;32.852;-116.998;2022-12-11T02:50:41;100304.31;;;24.51
45701;BMP280;36277;32.852;-116.998;2022-12-11T02:53:10;100303.63;;;24.49
45701;BMP280;36277;32.852;-116.998;2022-12-11T02:55:39;100311.25;;;24.47
45701;BMP280;36277;32.852;-116.998;2022-12-11T02:58:23;100308.00;;;24.44
45701;BMP280;36277;32.852;-116.998;2022-12-11T03:00:51;100306.00;;;24.38
45701;BMP280;36277;32.852;-116.998;2022-12-11T03:03:17;100311.69;;;24.36
45701;BMP280;36277;32.852;-116.998;2022-12-11T03:05:44;100313.97;;;24.33
45701;BMP280;36277;32.852;-116.998;2022-12-11T03:08:11;100308.84;;;24.30
45701;BMP280;36277;32.852;-116.998;2022-12-11T03:10:42;100314.75;;;24.27
45701;BMP280;36277;32.852;-116.998;2022-12-11T03:13:09;100301.31;;;24.24
45701;BMP280;36277;32.852;-116.998;2022-12-11T03:18:38;100310.25;;;24.12
45701;BMP280;36277;32.852;-116.998;2022-12-11T03:21:15;100306.00;;;24.09
45701;BMP280;36277;32.852;-116.998;2022-12-11T03:24:08;100308.66;;;24.03
45701;BMP280;36277;32.852;-116.998;2022-12-11T03:26:41;100313.69;;;23.99
45701;BMP280;36277;32.852;-116.998;2022-12-11T03:29:18;100308.53;;;23.96
45701;BMP280;36277;32.852;-116.998;2022-12-11T03:34:50;100335.34;;;23.88
45701;BMP280;36277;32.852;-116.998;2022-12-11T03:37:20;100338.28;;;23.86
45701;BMP280;36277;32.852;-116.998;2022-12-11T03:39:53;100344.84;;;23.85
45701;BMP280;36277;32.852;-116.998;2022-12-11T03:42:22;100344.66;;;23.87
45701;BMP280;36277;32.852;-116.998;2022-12-11T03:44:51;100350.84;;;23.89
45701;BMP280;36277;32.852;-116.998;2022-12-11T03:47:21;100358.25;;;23.88
45701;BMP280;36277;32.852;-116.998;2022-12-11T03:49:50;100359.59;;;23.92
45701;BMP280;36277;32.852;-116.998;2022-12-11T03:52:17;100360.44;;;23.93
45701;BMP280;36277;32.852;-116.998;2022-12-11T03:54:48;100346.09;;;23.97
45701;BMP280;36277;32.852;-116.998;2022-12-11T03:57:21;100348.69;;;23.99
45701;BMP280;36277;32.852;-116.998;2022-12-11T03:59:49;100345.06;;;23.98
45701;BMP280;36277;32.852;-116.998;2022-12-11T04:02:15;100350.56;;;23.98
45701;BMP280;36277;32.852;-116.998;2022-12-11T04:04:42;100347.63;;;24.00
45701;BMP280;36277;32.852;-116.998;2022-12-11T04:07:08;100356.56;;;24.02
45701;BMP280;36277;32.852;-116.998;2022-12-11T04:09:34;100361.88;;;24.03
45701;BMP280;36277;32.852;-116.998;2022-12-11T04:12:01;100364.66;;;24.03
45701;BMP280;36277;32.852;-116.998;2022-12-11T04:14:27;100369.13;;;24.04
45701;BMP280;36277;32.852;-116.998;2022-12-11T04:17:12;100378.44;;;24.03
45701;BMP280;36277;32.852;-116.998;2022-12-11T04:19:58;100377.75;;;24.01
45701;BMP280;36277;32.852;-116.998;2022-12-11T04:22:43;100378.81;;;24.00
45701;BMP280;36277;32.852;-116.998;2022-12-11T04:25:27;100377.97;;;24.00
45701;BMP280;36277;32.852;-116.998;2022-12-11T04:27:53;100382.22;;;24.02
45701;BMP280;36277;32.852;-116.998;2022-12-11T04:30:23;100381.88;;;24.05
45701;BMP280;36277;32.852;-116.998;2022-12-11T04:32:50;100383.78;;;24.05
45701;BMP280;36277;32.852;-116.998;2022-12-11T04:35:17;100379.09;;;24.05
45701;BMP280;36277;32.852;-116.998;2022-12-11T04:37:43;100380.66;;;24.08
45701;BMP280;36277;32.852;-116.998;2022-12-11T04:40:13;100383.88;;;24.11
45701;BMP280;36277;32.852;-116.998;2022-12-11T04:42:40;100392.53;;;24.08
45701;BMP280;36277;32.852;-116.998;2022-12-11T04:45:07;100388.94;;;24.08
45701;BMP280;36277;32.852;-116.998;2022-12-11T04:47:35;100398.41;;;24.05
45701;BMP280;36277;32.852;-116.998;2022-12-11T04:50:02;100402.72;;;24.08
45701;BMP280;36277;32.852;-116.998;2022-12-11T04:52:29;100399.75;;;24.09
45701;BMP280;36277;32.852;-116.998;2022-12-11T04:54:55;100402.97;;;24.13
45701;BMP280;36277;32.852;-116.998;2022-12-11T04:57:21;100395.94;;;24.10
45701;BMP280;36277;32.852;-116.998;2022-12-11T04:59:48;100403.56;;;24.08
45701;BMP280;36277;32.852;-116.998;2022-12-11T05:02:15;100399.28;;;24.06
45701;BMP280;36277;32.852;-116.998;2022-12-11T05:04:41;100400.50;;;24.03
45701;BMP280;36277;32.852;-116.998;2022-12-11T05:07:08;100403.44;;;24.02
45701;BMP280;36277;32.852;-116.998;2022-12-11T05:09:35;100406.38;;;24.00
45701;BMP280;36277;32.852;-116.998;2022-12-11T05:12:01;100403.16;;;23.97
45701;BMP280;36277;32.852;-116.998;2022-12-11T05:14:28;100410.53;;;23.96
45701;BMP280;36277;32.852;-116.998;2022-12-11T05:16:57;100414.38;;;23.95
45701;BMP280;36277;32.852;-116.998;2022-12-11T05:19:24;100417.66;;;23.91
45701;BMP280;36277;32.852;-116.998;2022-12-11T05:21:51;100409.59;;;23.89
45701;BMP280;36277;32.852;-116.998;2022-12-11T05:24:18;100407.00;;;23.88
45701;BMP280;36277;32.852;-116.998;2022-12-11T05:26:44;100408.25;;;23.85
45701;BMP280;36277;32.852;-116.998;2022-12-11T05:29:11;100415.16;;;23.81
45701;BMP280;36277;32.852;-116.998;2022-12-11T05:31:37;100410.69;;;23.80
45701;BMP280;36277;32.852;-116.998;2022-12-11T05:34:03;100416.53;;;23.77
45701;BMP280;36277;32.852;-116.998;2022-12-11T05:36:32;100413.31;;;23.74
45701;BMP280;36277;32.852;-116.998;2022-12-11T05:39:00;100420.22;;;23.70
45701;BMP280;36277;32.852;-116.998;2022-12-11T05:41:28;100419.75;;;23.66
45701;BMP280;36277;32.852;-116.998;2022-12-11T05:43:55;100422.88;;;23.63
45701;BMP280;36277;32.852;-116.998;2022-12-11T05:46:26;100416.69;;;23.61
45701;BMP280;36277;32.852;-116.998;2022-12-11T05:48:58;100414.28;;;23.58
45701;BMP280;36277;32.852;-116.998;2022-12-11T05:51:25;100413.13;;;23.53
45701;BMP280;36277;32.852;-116.998;2022-12-11T05:53:52;100409.72;;;23.51
45701;BMP280;36277;32.852;-116.998;2022-12-11T05:56:24;100412.63;;;23.49
45701;BMP280;36277;32.852;-116.998;2022-12-11T05:58:52;100418.50;;;23.46
45701;BMP280;36277;32.852;-116.998;2022-12-11T06:03:53;100435.59;;;23.42
45701;BMP280;36277;32.852;-116.998;2022-12-11T06:06:20;100434.06;;;23.39
45701;BMP280;36277;32.852;-116.998;2022-12-11T06:08:49;100437.84;;;23.38
45701;BMP280;36277;32.852;-116.998;2022-12-11T06:11:16;100434.78;;;23.33
45701;BMP280;36277;32.852;-116.998;2022-12-11T06:13:42;100425.66;;;23.33
45701;BMP280;36277;32.852;-116.998;2022-12-11T06:16:09;100425.66;;;23.33
45701;BMP280;36277;32.852;-116.998;2022-12-11T06:18:42;100427.56;;;23.32
45701;BMP280;36277;32.852;-116.998;2022-12-11T06:21:17;100442.38;;;23.31
45701;BMP280;36277;32.852;-116.998;2022-12-11T06:23:45;100443.59;;;23.29
45701;BMP280;36277;32.852;-116.998;2022-12-11T06:26:13;100452.03;;;23.27
45701;BMP280;36277;32.852;-116.998;2022-12-11T06:28:39;100454.09;;;23.25
45701;BMP280;36277;32.852;-116.998;2022-12-11T06:31:05;100447.75;;;23.25
45701;BMP280;36277;32.852;-116.998;2022-12-11T06:33:33;100447.91;;;23.23
45701;BMP280;36277;32.852;-116.998;2022-12-11T06:36:07;100441.38;;;23.24
45701;BMP280;36277;32.852;-116.998;2022-12-11T06:38:34;100440.00;;;23.20
45701;BMP280;36277;32.852;-116.998;2022-12-11T06:41:04;100450.00;;;23.21
45701;BMP280;36277;32.852;-116.998;2022-12-11T06:43:35;100438.13;;;23.21
45701;BMP280;36277;32.852;-116.998;2022-12-11T06:46:15;100434.50;;;23.20
45701;BMP280;36277;32.852;-116.998;2022-12-11T06:48:42;100441.59;;;23.15
45701;BMP280;36277;32.852;-116.998;2022-12-11T06:51:14;100457.28;;;23.14
45701;BMP280;36277;32.852;-116.998;2022-12-11T06:53:41;100461.06;;;23.13
45701;BMP280;36277;32.852;-116.998;2022-12-11T06:56:10;100460.19;;;23.13
45701;BMP280;36277;32.852;-116.998;2022-12-11T06:58:37;100464.84;;;23.12
45701;BMP280;36277;32.852;-116.998;2022-12-11T07:01:15;100443.66;;;23.13
45701;BMP280;36277;32.852;-116.998;2022-12-11T07:03:42;100446.97;;;23.08
45701;BMP280;36277;32.852;-116.998;2022-12-11T07:06:08;100437.84;;;23.08
45701;BMP280;36277;32.852;-116.998;2022-12-11T07:08:35;100438.88;;;23.07
45701;BMP280;36277;32.852;-116.998;2022-12-11T07:11:03;100442.66;;;23.06
45701;BMP280;36277;32.852;-116.998;2022-12-11T07:13:30;100449.22;;;23.05
45701;BMP280;36277;32.852;-116.998;2022-12-11T07:15:57;100451.97;;;23.05
45701;BMP280;36277;32.852;-116.998;2022-12-11T07:18:25;100440.28;;;23.03
45701;BMP280;36277;32.852;-116.998;2022-12-11T07:20:52;100441.31;;;23.02
45701;BMP280;36277;32.852;-116.998;2022-12-11T07:23:18;100440.63;;;23.00
45701;BMP280;36277;32.852;-116.998;2022-12-11T07:25:44;100441.66;;;22.99
45701;BMP280;36277;32.852;-116.998;2022-12-11T07:28:11;100428.06;;;22.98
45701;BMP280;36277;32.852;-116.998;2022-12-11T07:30:38;100425.31;;;22.98
45701;BMP280;36277;32.852;-116.998;2022-12-11T07:33:04;100420.84;;;22.97
45701;BMP280;36277;32.852;-116.998;2022-12-11T07:35:33;100413.63;;;22.96
45701;BMP280;36277;32.852;-116.998;2022-12-11T07:38:00;100418.28;;;22.95
45701;BMP280;36277;32.852;-116.998;2022-12-11T07:40:26;100413.13;;;22.92
45701;BMP280;36277;32.852;-116.998;2022-12-11T07:42:52;100420.69;;;22.90
45701;BMP280;36277;32.852;-116.998;2022-12-11T07:45:19;100422.78;;;22.88
45701;BMP280;36277;32.852;-116.998;2022-12-11T07:47:45;100411.94;;;22.87
45701;BMP280;36277;32.852;-116.998;2022-12-11T07:50:11;100412.13;;;22.85
45701;BMP280;36277;32.852;-116.998;2022-12-11T07:52:37;100401.31;;;22.84
45701;BMP280;36277;32.852;-116.998;2022-12-11T07:55:04;100397.88;;;22.82
45701;BMP280;36277;32.852;-116.998;2022-12-11T07:57:30;100375.16;;;22.80
45701;BMP280;36277;32.852;-116.998;2022-12-11T07:59:57;100371.75;;;22.78
45701;BMP280;36277;32.852;-116.998;2022-12-11T08:02:23;100377.25;;;22.78
45701;BMP280;36277;32.852;-116.998;2022-12-11T08:04:49;100367.47;;;22.75
45701;BMP280;36277;32.852;-116.998;2022-12-11T08:07:16;100368.50;;;22.74
45701;BMP280;36277;32.852;-116.998;2022-12-11T08:09:42;100365.22;;;22.71
45701;BMP280;36277;32.852;-116.998;2022-12-11T08:12:08;100352.50;;;22.70
45701;BMP280;36277;32.852;-116.998;2022-12-11T08:14:34;100342.53;;;22.69
45701;BMP280;36277;32.852;-116.998;2022-12-11T08:17:01;100339.78;;;22.69
45701;BMP280;36277;32.852;-116.998;2022-12-11T08:19:27;100330.00;;;22.66
45701;BMP280;36277;32.852;-116.998;2022-12-11T08:21:53;100335.50;;;22.66
45701;BMP280;36277;32.852;-116.998;2022-12-11T08:24:20;100329.16;;;22.66
45701;BMP280;36277;32.852;-116.998;2022-12-11T08:26:46;100317.13;;;22.67
45701;BMP280;36277;32.852;-116.998;2022-12-11T08:29:13;100310.94;;;22.65
45701;BMP280;36277;32.852;-116.998;2022-12-11T08:31:40;100307.50;;;22.63
45701;BMP280;36277;32.852;-116.998;2022-12-11T08:34:07;100307.50;;;22.63
45701;BMP280;36277;32.852;-116.998;2022-12-11T08:36:33;100302.19;;;22.61
45701;BMP280;36277;32.852;-116.998;2022-12-11T08:38:59;100304.09;;;22.61
45701;BMP280;36277;32.852;-116.998;2022-12-11T08:41:28;100299.63;;;22.60
45701;BMP280;36277;32.852;-116.998;2022-12-11T08:43:56;100299.97;;;22.57
45701;BMP280;36277;32.852;-116.998;2022-12-11T08:46:28;100320.94;;;22.58
45701;BMP280;36277;32.852;-116.998;2022-12-11T08:48:55;100315.81;;;22.55
45701;BMP280;36277;32.852;-116.998;2022-12-11T08:51:24;100319.59;;;22.54
45701;BMP280;36277;32.852;-116.998;2022-12-11T08:53:54;100316.84;;;22.54
45701;BMP280;36277;32.852;-116.998;2022-12-11T08:56:21;100319.09;;;22.50
45701;BMP280;36277;32.852;-116.998;2022-12-11T08:58:49;100320.97;;;22.50
45701;BMP280;36277;32.852;-116.998;2022-12-11T09:01:18;100329.41;;;22.48
45701;BMP280;36277;32.852;-116.998;2022-12-11T09:03:46;100346.09;;;22.47
45701;BMP280;36277;32.852;-116.998;2022-12-11T09:06:16;100337.81;;;22.47
45701;BMP280;36277;32.852;-116.998;2022-12-11T09:08:44;100347.31;;;22.44
45701;BMP280;36277;32.852;-116.998;2022-12-11T09:11:16;100352.81;;;22.44
45701;BMP280;36277;32.852;-116.998;2022-12-11T09:13:43;100356.09;;;22.40
45701;BMP280;36277;32.852;-116.998;2022-12-11T09:16:12;100364.34;;;22.40
45701;BMP280;36277;32.852;-116.998;2022-12-11T09:18:39;100366.41;;;22.38
45701;BMP280;36277;32.852;-116.998;2022-12-11T09:21:12;100363.66;;;22.38
45701;BMP280;36277;32.852;-116.998;2022-12-11T09:23:39;100363.31;;;22.33
45701;BMP280;36277;32.852;-116.998;2022-12-11T09:26:07;100362.31;;;22.34
45701;BMP280;36277;32.852;-116.998;2022-12-11T09:28:33;100370.56;;;22.34
45701;BMP280;36277;32.852;-116.998;2022-12-11T09:30:59;100357.97;;;22.31
45701;BMP280;36277;32.852;-116.998;2022-12-11T09:33:26;100374.47;;;22.31
45701;BMP280;36277;32.852;-116.998;2022-12-11T09:35:59;100372.41;;;22.33
45701;BMP280;36277;32.852;-116.998;2022-12-11T09:38:25;100378.63;;;22.27
45701;BMP280;36277;32.852;-116.998;2022-12-11T09:40:52;100367.78;;;22.26
45701;BMP280;36277;32.852;-116.998;2022-12-11T09:43:37;100368.47;;;22.28
45701;BMP280;36277;32.852;-116.998;2022-12-11T09:46:09;100361.78;;;22.22
45701;BMP280;36277;32.852;-116.998;2022-12-11T09:48:39;100357.31;;;22.21
45701;BMP280;36277;32.852;-116.998;2022-12-11T09:53:44;100354.72;;;22.20
45701;BMP280;36277;32.852;-116.998;2022-12-11T09:56:21;100354.72;;;22.20
45701;BMP280;36277;32.852;-116.998;2022-12-11T10:01:47;100360.09;;;22.13
45701;BMP280;36277;32.852;-116.998;2022-12-11T10:07:15;100353.06;;;22.11
45701;BMP280;36277;32.852;-116.998;2022-12-11T10:15:36;100350.66;;;22.08
45701;BMP280;36277;32.852;-116.998;2022-12-11T10:18:10;100352.72;;;22.06
45701;BMP280;36277;32.852;-116.998;2022-12-11T10:20:38;100358.56;;;22.03
45701;BMP280;36277;32.852;-116.998;2022-12-11T10:23:17;100351.00;;;22.05
45701;BMP280;36277;32.852;-116.998;2022-12-11T10:25:54;100346.72;;;22.02
45701;BMP280;36277;32.852;-116.998;2022-12-11T10:28:22;100338.63;;;22.01
45701;BMP280;36277;32.852;-116.998;2022-12-11T10:33:37;100331.44;;;22.00
45701;BMP280;36277;32.852;-116.998;2022-12-11T10:36:07;100334.53;;;21.97
45701;BMP280;36277;32.852;-116.998;2022-12-11T10:38:41;100325.94;;;22.00
45701;BMP280;36277;32.852;-116.998;2022-12-11T10:41:18;100327.66;;;22.01
45701;BMP280;36277;32.852;-116.998;2022-12-11T10:43:51;100326.13;;;21.98
45701;BMP280;36277;32.852;-116.998;2022-12-11T10:46:19;100337.28;;;21.97
45701;BMP280;36277;32.852;-116.998;2022-12-11T10:48:51;100330.75;;;21.98
45701;BMP280;36277;32.852;-116.998;2022-12-11T10:51:24;100320.09;;;21.95
45701;BMP280;36277;32.852;-116.998;2022-12-11T10:53:59;100311.84;;;21.95
45701;BMP280;36277;32.852;-116.998;2022-12-11T10:56:30;100321.13;;;21.94
45701;BMP280;36277;32.852;-116.998;2022-12-11T10:58:58;100324.91;;;21.93
45701;BMP280;36277;32.852;-116.998;2022-12-11T11:01:27;100316.00;;;21.91
45701;BMP280;36277;32.852;-116.998;2022-12-11T11:03:58;100327.00;;;21.91
45701;BMP280;36277;32.852;-116.998;2022-12-11T11:06:28;100328.03;;;21.90
45701;BMP280;36277;32.852;-116.998;2022-12-11T11:08:56;100332.50;;;21.91
45701;BMP280;36277;32.852;-116.998;2022-12-11T11:11:29;100316.00;;;21.91
45701;BMP280;36277;32.852;-116.998;2022-12-11T11:14:18;100317.38;;;21.87
45701;BMP280;36277;32.852;-116.998;2022-12-11T11:16:47;100300.38;;;21.84
45701;BMP280;36277;32.852;-116.998;2022-12-11T11:19:26;100300.22;;;21.85
45701;BMP280;36277;32.852;-116.998;2022-12-11T11:21:58;100282.16;;;21.83
45701;BMP280;36277;32.852;-116.998;2022-12-11T11:24:29;100272.06;;;21.83
45701;BMP280;36277;32.852;-116.998;2022-12-11T11:27:00;100268.78;;;21.80
45701;BMP280;36277;32.852;-116.998;2022-12-11T11:29:33;100265.88;;;21.81
45701;BMP280;36277;32.852;-116.998;2022-12-11T11:32:24;100251.66;;;21.78
45701;BMP280;36277;32.852;-116.998;2022-12-11T11:34:52;100249.25;;;21.75
45701;BMP280;36277;32.852;-116.998;2022-12-11T11:37:32;100252.50;;;21.78
45701;BMP280;36277;32.852;-116.998;2022-12-11T11:40:10;100246.31;;;21.76
45701;BMP280;36277;32.852;-116.998;2022-12-11T11:45:19;100239.28;;;21.74
45701;BMP280;36277;32.852;-116.998;2022-12-11T11:48:12;100246.66;;;21.73
45701;BMP280;36277;32.852;-116.998;2022-12-11T11:50:44;100236.03;;;21.70
45701;BMP280;36277;32.852;-116.998;2022-12-11T11:53:18;100238.75;;;21.70
45701;BMP280;36277;32.852;-116.998;2022-12-11T11:58:23;100225.03;;;21.70
45701;BMP280;36277;32.852;-116.998;2022-12-11T12:00:53;100227.97;;;21.69
45701;BMP280;36277;32.852;-116.998;2022-12-11T12:03:21;100230.53;;;21.70
45701;BMP280;36277;32.852;-116.998;2022-12-11T12:19:45;100234.00;;;21.64
45701;BMP280;36277;32.852;-116.998;2022-12-11T12:22:30;100231.41;;;21.63
45701;BMP280;36277;32.852;-116.998;2022-12-11T12:25:28;100233.31;;;21.62
45701;BMP280;36277;32.852;-116.998;2022-12-11T12:28:18;100243.25;;;21.55
45701;BMP280;36277;32.852;-116.998;2022-12-11T12:31:03;100248.72;;;21.55
45701;BMP280;36277;32.852;-116.998;2022-12-11T12:36:38;100250.44;;;21.56
45701;BMP280;36277;32.852;-116.998;2022-12-11T12:39:23;100237.06;;;21.53
45701;BMP280;36277;32.852;-116.998;2022-12-11T12:44:57;100236.38;;;21.51
45701;BMP280;36277;32.852;-116.998;2022-12-11T12:47:27;100232.09;;;21.49
45701;BMP280;36277;32.852;-116.998;2022-12-11T12:49:58;100230.88;;;21.51
45701;BMP280;36277;32.852;-116.998;2022-12-11T12:54:57;100229.16;;;21.50
45701;BMP280;36277;32.852;-116.998;2022-12-11T12:58:03;100222.31;;;21.46
45701;BMP280;36277;32.852;-116.998;2022-12-11T13:00:41;100226.09;;;21.45
45701;BMP280;36277;32.852;-116.998;2022-12-11T13:03:23;100227.81;;;21.46
45701;BMP280;36277;32.852;-116.998;2022-12-11T13:06:03;100227.31;;;21.43
45701;BMP280;36277;32.852;-116.998;2022-12-11T13:08:43;100222.66;;;21.43
45701;BMP280;36277;32.852;-116.998;2022-12-11T13:11:12;100219.22;;;21.41
45701;BMP280;36277;32.852;-116.998;2022-12-11T13:13:43;100215.44;;;21.42
45701;BMP280;36277;32.852;-116.998;2022-12-11T13:18:44;100202.75;;;21.41
45701;BMP280;36277;32.852;-116.998;2022-12-11T13:26:45;100198.47;;;21.39
45701;BMP280;36277;32.852;-116.998;2022-12-11T13:29:31;100203.63;;;21.42
45701;BMP280;36277;32.852;-116.998;2022-12-11T13:32:00;100203.81;;;21.40
45701;BMP280;36277;32.852;-116.998;2022-12-11T13:34:31;100214.78;;;21.40
45701;BMP280;36277;32.852;-116.998;2022-12-11T13:36:59;100211.38;;;21.38
45701;BMP280;36277;32.852;-116.998;2022-12-11T13:39:33;100205.69;;;21.40
45701;BMP280;36277;32.852;-116.998;2022-12-11T13:42:23;100200.38;;;21.38
45701;BMP280;36277;32.852;-116.998;2022-12-11T13:44:51;100199.00;;;21.34
45701;BMP280;36277;32.852;-116.998;2022-12-11T13:47:18;100206.91;;;21.37
45701;BMP280;36277;32.852;-116.998;2022-12-11T13:49:49;100200.38;;;21.38
45701;BMP280;36277;32.852;-116.998;2022-12-11T13:52:21;100204.50;;;21.34
45701;BMP280;36277;32.852;-116.998;2022-12-11T13:54:51;100199.84;;;21.35
45701;BMP280;36277;32.852;-116.998;2022-12-11T13:57:20;100196.41;;;21.33
45701;BMP280;36277;32.852;-116.998;2022-12-11T13:59:57;100193.53;;;21.34
45701;BMP280;36277;32.852;-116.998;2022-12-11T14:02:28;100205.53;;;21.33
45701;BMP280;36277;32.852;-116.998;2022-12-11T14:05:04;100199.00;;;21.34
45701;BMP280;36277;32.852;-116.998;2022-12-11T14:07:33;100197.44;;;21.32
45701;BMP280;36277;32.852;-116.998;2022-12-11T14:10:07;100198.31;;;21.32
45701;BMP280;36277;32.852;-116.998;2022-12-11T14:12:35;100200.38;;;21.30
45701;BMP280;36277;32.852;-116.998;2022-12-11T14:15:03;100195.94;;;21.29
45701;BMP280;36277;32.852;-116.998;2022-12-11T14:17:32;100193.19;;;21.29
45701;BMP280;36277;32.852;-116.998;2022-12-11T14:20:02;100190.78;;;21.26
45701;BMP280;36277;32.852;-116.998;2022-12-11T14:22:31;100191.81;;;21.25
45701;BMP280;36277;32.852;-116.998;2022-12-11T14:25:00;100195.25;;;21.27
45701;BMP280;36277;32.852;-116.998;2022-12-11T14:27:28;100201.94;;;21.25
45701;BMP280;36277;32.852;-116.998;2022-12-11T14:29:55;100190.09;;;21.24
45701;BMP280;36277;32.852;-116.998;2022-12-11T14:32:37;100188.38;;;21.23
45701;BMP280;36277;32.852;-116.998;2022-12-11T14:35:26;100190.09;;;21.24
45701;BMP280;36277;32.852;-116.998;2022-12-11T14:37:53;100188.03;;;21.26
45701;BMP280;36277;32.852;-116.998;2022-12-11T14:40:24;100194.19;;;21.36
45701;BMP280;36277;32.852;-116.998;2022-12-11T14:43:00;100189.34;;;21.46
45701;BMP280;36277;32.852;-116.998;2022-12-11T14:45:43;100199.00;;;21.58
45701;BMP280;36277;32.852;-116.998;2022-12-11T14:48:20;100198.78;;;21.68